Wascott, Wisconsin
Current Conditions -  °F | °C
As of 11:55 AM on Friday 21 Nov 2014 (Local Time) from KOLG Reporting Station
Clear Clear  
Wind Chill: 12°   Ceiling: Unl
Heat Index: 23°   Visibility: 10mi
Dew Point:   Wind: 10mph
Humidity: 54%   Direction: 180°S
Pressure: 30.05"   Gusts: 17mph
Location:  46.17°N, 91.8°W
Report Text: KOLG 211755Z AUTO 18009G15KT 10SM CLR M05/M13 A3005 RMK AO1
Loading
Personal Weather Stations






























Interactive Weather Map New forecast layout! Learn more

10-Day Weather Forecast

Advertisements
Track Severe Weather on mobile